createdAt,value
2023-04-02T00:00:12.840Z,4.59
2023-04-02T00:01:12.824Z,4.59
2023-04-02T00:02:12.854Z,4.59
2023-04-02T00:03:12.867Z,4.60
2023-04-02T00:04:13.003Z,4.59
2023-04-02T00:05:12.782Z,4.59
2023-04-02T00:06:12.780Z,4.58
2023-04-02T00:07:12.753Z,4.58
2023-04-02T00:08:12.754Z,4.58
2023-04-02T00:09:12.760Z,4.54
2023-04-02T00:10:12.727Z,4.55
2023-04-02T00:11:12.705Z,4.55
2023-04-02T00:12:12.729Z,4.54
2023-04-02T00:13:12.693Z,4.55
2023-04-02T00:14:12.698Z,4.55
2023-04-02T00:15:12.688Z,4.55
2023-04-02T00:16:12.673Z,4.52
2023-04-02T00:17:12.672Z,4.52
2023-04-02T00:18:12.670Z,4.51
2023-04-02T00:19:12.622Z,4.50
2023-04-02T00:20:12.665Z,4.50
2023-04-02T00:21:12.609Z,4.50
2023-04-02T00:22:12.647Z,4.50
2023-04-02T00:23:12.579Z,4.51
2023-04-02T00:24:12.594Z,4.48
2023-04-02T00:25:12.584Z,4.48
2023-04-02T00:26:12.558Z,4.48
2023-04-02T00:27:12.582Z,4.48
2023-04-02T00:28:12.528Z,4.48
2023-04-02T00:29:12.551Z,4.47
2023-04-02T00:30:12.498Z,4.48
2023-04-02T00:31:12.495Z,4.47
2023-04-02T00:32:12.546Z,4.45
2023-04-02T00:33:12.563Z,4.45
2023-04-02T00:34:12.560Z,4.48
2023-04-02T00:35:12.451Z,4.47
2023-04-02T00:36:12.462Z,4.45
2023-04-02T00:37:12.436Z,4.47
2023-04-02T00:38:12.413Z,4.45
2023-04-02T00:39:12.402Z,4.42
2023-04-02T00:40:12.401Z,4.42
2023-04-02T00:41:12.373Z,4.42
2023-04-02T00:42:12.374Z,4.37
2023-04-02T00:43:12.346Z,4.37
2023-04-02T00:44:12.411Z,4.33
2023-04-02T00:45:12.354Z,4.33
2023-04-02T00:46:12.369Z,4.33
2023-04-02T00:47:12.295Z,4.33
2023-04-02T00:48:12.355Z,4.33
2023-04-02T00:49:12.301Z,4.29
2023-04-02T00:50:12.282Z,4.30
2023-04-02T00:51:12.262Z,4.27
2023-04-02T00:52:12.263Z,4.27
2023-04-02T00:53:12.272Z,4.29
2023-04-02T00:54:12.231Z,4.26
2023-04-02T00:55:12.264Z,4.24
2023-04-02T00:56:12.233Z,4.23
2023-04-02T00:57:12.314Z,4.24
2023-04-02T00:58:12.197Z,4.23
2023-04-02T00:59:12.179Z,4.23
2023-04-02T01:00:12.182Z,4.24
2023-04-02T01:01:12.193Z,4.22
2023-04-02T01:02:12.197Z,4.24
2023-04-02T01:03:12.222Z,4.23
2023-04-02T01:04:12.118Z,4.24
2023-04-02T01:05:12.139Z,4.23
2023-04-02T01:06:12.108Z,4.20
2023-04-02T01:07:12.088Z,4.22
2023-04-02T01:08:12.085Z,4.20
2023-04-02T01:09:12.150Z,4.16
2023-04-02T01:10:12.050Z,4.18
2023-04-02T01:11:12.037Z,4.16
2023-04-02T01:12:12.034Z,4.14
2023-04-02T01:13:12.122Z,4.16
2023-04-02T01:14:12.023Z,4.16
2023-04-02T01:15:12.010Z,4.16
2023-04-02T01:16:12.014Z,4.15
2023-04-02T01:17:11.982Z,4.14
2023-04-02T01:18:11.985Z,4.12
2023-04-02T01:19:11.951Z,4.14
2023-04-02T01:20:11.966Z,4.11
2023-04-02T01:21:11.934Z,4.11
2023-04-02T01:22:11.910Z,4.05
2023-04-02T01:23:11.903Z,4.05
2023-04-02T01:24:11.904Z,4.02
2023-04-02T01:25:11.880Z,3.96
2023-04-02T01:26:11.896Z,3.94
2023-04-02T01:27:11.928Z,3.94
2023-04-02T01:28:11.841Z,3.93
2023-04-02T01:29:11.837Z,3.88
2023-04-02T01:30:11.829Z,3.86
2023-04-02T01:31:11.821Z,3.86
2023-04-02T01:32:11.832Z,3.86
2023-04-02T01:33:11.797Z,3.79
2023-04-02T01:34:11.799Z,3.79
2023-04-02T01:35:11.778Z,3.78
2023-04-02T01:36:11.796Z,3.76
2023-04-02T01:37:11.746Z,3.73
2023-04-02T01:38:11.759Z,3.72
2023-04-02T01:39:11.742Z,3.72
2023-04-02T01:40:11.719Z,3.69
2023-04-02T01:41:11.696Z,3.69
2023-04-02T01:42:11.692Z,3.69
2023-04-02T01:43:11.695Z,3.68
2023-04-02T01:44:11.679Z,3.66
2023-04-02T01:45:11.667Z,3.66
2023-04-02T01:46:11.653Z,3.66
2023-04-02T01:47:11.633Z,3.65
2023-04-02T01:48:11.645Z,3.62
2023-04-02T01:49:11.611Z,3.61
2023-04-02T01:50:11.678Z,3.62
2023-04-02T01:51:11.600Z,3.61
2023-04-02T01:52:11.585Z,3.62
2023-04-02T01:53:11.594Z,3.58
2023-04-02T01:54:11.559Z,3.58
2023-04-02T01:55:11.591Z,3.54
2023-04-02T01:56:11.557Z,3.52
2023-04-02T01:57:11.534Z,3.55
2023-04-02T01:58:11.524Z,3.51
2023-04-02T01:59:11.524Z,3.52
2023-04-02T02:00:11.521Z,3.51
2023-04-02T02:01:11.551Z,3.51
2023-04-02T02:02:11.600Z,3.52
2023-04-02T02:03:11.494Z,3.50
2023-04-02T02:04:11.456Z,3.51
2023-04-02T02:05:11.469Z,3.52
2023-04-02T02:06:11.455Z,3.50
2023-04-02T02:07:11.411Z,3.48
2023-04-02T02:08:11.489Z,3.47
2023-04-02T02:09:11.396Z,3.48
2023-04-02T02:10:11.415Z,3.48
2023-04-02T02:11:11.374Z,3.48
2023-04-02T02:12:11.365Z,3.48
2023-04-02T02:13:11.368Z,3.48
2023-04-02T02:14:11.372Z,3.47
2023-04-02T02:15:11.348Z,3.47
2023-04-02T02:16:11.383Z,3.48
2023-04-02T02:17:11.315Z,3.48
2023-04-02T02:18:11.315Z,3.48
2023-04-02T02:19:11.314Z,3.51
2023-04-02T02:20:11.347Z,3.48
2023-04-02T02:21:11.279Z,3.50
2023-04-02T02:22:11.286Z,3.52
2023-04-02T02:23:11.287Z,3.52
2023-04-02T02:24:11.259Z,3.52
2023-04-02T02:25:11.250Z,3.48
2023-04-02T02:26:11.236Z,3.50
2023-04-02T02:27:11.242Z,3.51
2023-04-02T02:28:11.252Z,3.52
2023-04-02T02:29:11.202Z,3.50
2023-04-02T02:30:11.183Z,3.47
2023-04-02T02:31:11.173Z,3.43
2023-04-02T02:32:11.273Z,3.43
2023-04-02T02:33:11.166Z,3.39
2023-04-02T02:34:11.137Z,3.39
2023-04-02T02:35:11.137Z,3.40
2023-04-02T02:36:11.154Z,3.39
2023-04-02T02:37:11.134Z,3.35
2023-04-02T02:38:11.155Z,3.32
2023-04-02T02:39:11.107Z,3.32
2023-04-02T02:40:11.078Z,3.31
2023-04-02T02:41:11.112Z,3.33
2023-04-02T02:42:11.051Z,3.35
2023-04-02T02:43:11.082Z,3.32
2023-04-02T02:44:11.036Z,3.33
2023-04-02T02:45:11.185Z,3.31
2023-04-02T02:46:11.064Z,3.28
2023-04-02T02:47:11.002Z,3.24
2023-04-02T02:48:11.031Z,3.24
2023-04-02T02:49:10.986Z,3.24
2023-04-02T02:50:10.978Z,3.26
2023-04-02T02:51:10.992Z,3.23
2023-04-02T02:52:10.943Z,3.20
2023-04-02T02:53:10.936Z,3.20
2023-04-02T02:54:10.924Z,3.18
2023-04-02T02:55:10.921Z,3.21
2023-04-02T02:56:10.925Z,3.18
2023-04-02T02:57:10.935Z,3.18
2023-04-02T02:58:10.884Z,3.18
2023-04-02T02:59:10.942Z,3.18
2023-04-02T03:00:10.866Z,3.17
2023-04-02T03:01:10.878Z,3.17
2023-04-02T03:02:10.863Z,3.17
2023-04-02T03:03:11.039Z,3.17
2023-04-02T03:04:10.882Z,3.20
2023-04-02T03:05:10.806Z,3.15
2023-04-02T03:06:10.815Z,3.14
2023-04-02T03:07:10.788Z,3.15
2023-04-02T03:08:10.790Z,3.14
2023-04-02T03:09:10.773Z,3.11
2023-04-02T03:10:10.771Z,3.13
2023-04-02T03:11:10.796Z,3.11
2023-04-02T03:12:10.742Z,3.11
2023-04-02T03:13:10.756Z,3.05
2023-04-02T03:14:10.715Z,3.06
2023-04-02T03:15:10.722Z,3.05
2023-04-02T03:16:10.777Z,3.00
2023-04-02T03:17:10.687Z,3.02
2023-04-02T03:18:10.674Z,3.05
2023-04-02T03:19:10.674Z,3.05
2023-04-02T03:20:10.758Z,3.03
2023-04-02T03:21:10.648Z,3.05
2023-04-02T03:22:10.638Z,3.06
2023-04-02T03:23:10.631Z,3.06
2023-04-02T03:24:10.627Z,3.02
2023-04-02T03:25:10.612Z,3.06
2023-04-02T03:26:10.614Z,3.02
2023-04-02T03:27:10.623Z,3.03
2023-04-02T03:28:10.582Z,3.00
2023-04-02T03:29:10.691Z,3.03
2023-04-02T03:30:10.567Z,3.00
2023-04-02T03:31:10.625Z,3.00
2023-04-02T03:32:10.546Z,2.99
2023-04-02T03:33:10.589Z,2.97
2023-04-02T03:34:10.507Z,2.96
2023-04-02T03:35:10.527Z,2.95
2023-04-02T03:36:10.555Z,2.93
2023-04-02T03:37:10.478Z,2.90
2023-04-02T03:38:10.504Z,2.89
2023-04-02T03:39:10.478Z,2.87
2023-04-02T03:40:10.454Z,2.84
2023-04-02T03:41:10.446Z,2.81
2023-04-02T03:42:10.446Z,2.84
2023-04-02T03:43:10.469Z,2.81
2023-04-02T03:44:10.428Z,2.81
2023-04-02T03:45:10.403Z,2.84
2023-04-02T03:46:10.414Z,2.79
2023-04-02T03:47:10.399Z,2.78
2023-04-02T03:48:10.381Z,2.81
2023-04-02T03:49:10.363Z,2.78
2023-04-02T03:50:10.459Z,2.77
2023-04-02T03:51:10.353Z,2.78
2023-04-02T03:52:10.339Z,2.78
2023-04-02T03:53:10.326Z,2.78
2023-04-02T03:54:10.332Z,2.77
2023-04-02T03:55:10.331Z,2.77
2023-04-02T03:56:10.318Z,2.77
2023-04-02T03:57:10.316Z,2.77
2023-04-02T03:58:10.267Z,2.78
2023-04-02T03:59:10.344Z,2.77
2023-04-02T04:00:10.245Z,2.75
2023-04-02T04:01:10.307Z,2.72
2023-04-02T04:02:10.281Z,2.74
2023-04-02T04:03:10.246Z,2.77
2023-04-02T04:04:10.240Z,2.78
2023-04-02T04:05:10.197Z,2.75
2023-04-02T04:06:10.200Z,2.74
2023-04-02T04:07:10.196Z,2.74
2023-04-02T04:08:10.256Z,2.74
2023-04-02T04:09:10.191Z,2.75
2023-04-02T04:10:10.160Z,2.75
2023-04-02T04:11:10.253Z,2.75
2023-04-02T04:12:10.118Z,2.77
2023-04-02T04:13:10.114Z,2.77
2023-04-02T04:14:10.113Z,2.77
2023-04-02T04:15:10.122Z,2.75
2023-04-02T04:16:10.115Z,2.77
2023-04-02T04:17:10.067Z,2.77
2023-04-02T04:18:10.088Z,2.78
2023-04-02T04:19:10.046Z,2.79
2023-04-02T04:20:10.062Z,2.79
2023-04-02T04:21:10.037Z,2.78
2023-04-02T04:22:10.012Z,2.78
2023-04-02T04:23:10.029Z,2.77
2023-04-02T04:24:10.002Z,2.75
2023-04-02T04:25:09.983Z,2.74
2023-04-02T04:26:09.987Z,2.74
2023-04-02T04:27:10.051Z,2.72
2023-04-02T04:28:09.952Z,2.71
2023-04-02T04:29:10.042Z,2.71
2023-04-02T04:30:09.942Z,2.71
2023-04-02T04:31:09.998Z,2.71
2023-04-02T04:32:09.932Z,2.74
2023-04-02T04:33:09.956Z,2.71
2023-04-02T04:34:09.894Z,2.72
2023-04-02T04:35:09.841Z,2.71
2023-04-02T04:36:09.966Z,2.69
2023-04-02T04:37:09.870Z,2.71
2023-04-02T04:38:09.849Z,2.67
2023-04-02T04:39:09.853Z,2.71
2023-04-02T04:40:09.829Z,2.69
2023-04-02T04:41:09.778Z,2.71
2023-04-02T04:42:09.815Z,2.72
2023-04-02T04:43:09.784Z,2.67
2023-04-02T04:44:09.742Z,2.69
2023-04-02T04:45:09.733Z,2.71
2023-04-02T04:46:09.772Z,2.71
2023-04-02T04:47:09.717Z,2.71
2023-04-02T04:48:09.691Z,2.66
2023-04-02T04:49:09.682Z,2.66
2023-04-02T04:50:09.693Z,2.66
2023-04-02T04:51:09.677Z,2.64
2023-04-02T04:52:09.647Z,2.64
2023-04-02T04:53:09.645Z,2.63
2023-04-02T04:54:09.630Z,2.64
2023-04-02T04:55:09.627Z,2.61
2023-04-02T04:56:18.669Z,2.63
2023-04-02T04:57:09.662Z,2.61
2023-04-02T04:58:09.604Z,2.63
2023-04-02T04:59:09.587Z,2.64
2023-04-02T05:00:09.572Z,2.61
2023-04-02T05:01:09.626Z,2.63
2023-04-02T05:02:09.563Z,2.63
2023-04-02T05:03:09.606Z,2.64
2023-04-02T05:04:09.611Z,2.64
2023-04-02T05:05:09.528Z,2.63
2023-04-02T05:06:09.524Z,2.64
2023-04-02T05:07:09.505Z,2.66
2023-04-02T05:08:09.531Z,2.66
2023-04-02T05:09:09.510Z,2.64
2023-04-02T05:10:09.579Z,2.66
2023-04-02T05:11:09.486Z,2.64
2023-04-02T05:12:09.466Z,2.66
2023-04-02T05:13:09.458Z,2.66
2023-04-02T05:14:09.437Z,2.63
2023-04-02T05:15:09.465Z,2.63
2023-04-02T05:16:09.435Z,2.61
2023-04-02T05:17:09.561Z,2.59
2023-04-02T05:18:09.386Z,2.60
2023-04-02T05:19:09.427Z,2.63
2023-04-02T05:20:09.366Z,2.61
2023-04-02T05:21:09.359Z,2.59
2023-04-02T05:22:09.352Z,2.60
2023-04-02T05:23:09.346Z,2.61
2023-04-02T05:24:09.374Z,2.60
2023-04-02T05:25:09.368Z,2.60
2023-04-02T05:26:09.352Z,2.60
2023-04-02T05:27:09.302Z,2.63
2023-04-02T05:28:09.285Z,2.60
2023-04-02T05:29:09.311Z,2.64
2023-04-02T05:30:09.278Z,2.63
2023-04-02T05:31:09.335Z,2.66
2023-04-02T05:32:09.242Z,2.66
2023-04-02T05:33:09.370Z,2.67
2023-04-02T05:34:09.237Z,2.66
2023-04-02T05:35:09.229Z,2.67
2023-04-02T05:36:09.403Z,2.66
2023-04-02T05:37:09.184Z,2.64
2023-04-02T05:38:09.330Z,2.64
2023-04-02T05:39:09.177Z,2.64
2023-04-02T05:40:09.249Z,2.63
2023-04-02T05:41:09.150Z,2.63
2023-04-02T05:42:09.154Z,2.60
2023-04-02T05:43:10.109Z,2.60
2023-04-02T05:44:09.138Z,2.60
2023-04-02T05:45:09.308Z,2.61
2023-04-02T05:46:09.130Z,2.63
2023-04-02T05:47:09.177Z,2.60
2023-04-02T05:48:09.079Z,2.61
2023-04-02T05:49:09.095Z,2.60
2023-04-02T05:50:09.081Z,2.63
2023-04-02T05:51:09.145Z,2.63
2023-04-02T05:52:09.044Z,2.64
2023-04-02T05:53:09.023Z,2.66
2023-04-02T05:54:09.072Z,2.64
2023-04-02T05:55:09.016Z,2.66
2023-04-02T05:56:09.074Z,2.66
2023-04-02T05:57:09.096Z,2.64
2023-04-02T05:58:29.991Z,2.66
2023-04-02T05:59:09.061Z,2.67
2023-04-02T06:00:08.950Z,2.69
2023-04-02T06:01:08.979Z,2.66
2023-04-02T06:02:08.969Z,2.66
2023-04-02T06:03:09.188Z,2.67
2023-04-02T06:04:09.017Z,2.67
2023-04-02T06:05:08.927Z,2.67
2023-04-02T06:06:09.033Z,2.66
2023-04-02T06:07:08.886Z,2.69
2023-04-02T06:08:08.921Z,2.67
2023-04-02T06:09:08.887Z,2.69
2023-04-02T06:10:09.807Z,2.67
2023-04-02T06:11:08.856Z,2.69
2023-04-02T06:12:08.850Z,2.67
2023-04-02T06:13:08.849Z,2.71
2023-04-02T06:14:08.805Z,2.72
2023-04-02T06:15:08.821Z,2.69
2023-04-02T06:16:08.785Z,2.77
2023-04-02T06:17:08.774Z,2.77
2023-04-02T06:18:08.798Z,2.79
2023-04-02T06:19:08.832Z,2.79
2023-04-02T06:20:08.777Z,2.85
2023-04-02T06:21:08.736Z,2.87
2023-04-02T06:22:08.742Z,2.89
2023-04-02T06:23:08.717Z,2.92
2023-04-02T06:24:08.726Z,2.95
2023-04-02T06:25:08.713Z,2.96
2023-04-02T06:26:08.697Z,2.96
2023-04-02T06:27:08.776Z,2.96
2023-04-02T06:28:08.674Z,2.97
2023-04-02T06:29:08.656Z,2.97
2023-04-02T06:30:08.641Z,2.96
2023-04-02T06:31:08.734Z,2.97
2023-04-02T06:32:08.644Z,2.99
2023-04-02T06:33:08.682Z,2.99
2023-04-02T06:34:08.620Z,3.00
2023-04-02T06:35:08.587Z,3.00
2023-04-02T06:36:08.660Z,3.00
2023-04-02T06:37:08.576Z,2.99
2023-04-02T06:38:08.631Z,3.02
2023-04-02T06:39:08.568Z,2.99
2023-04-02T06:40:08.630Z,3.03
2023-04-02T06:41:08.531Z,2.99
2023-04-02T06:42:08.541Z,3.02
2023-04-02T06:43:08.513Z,3.05
2023-04-02T06:44:08.519Z,3.06
2023-04-02T06:45:08.628Z,3.02
2023-04-02T06:46:08.562Z,3.03
2023-04-02T06:47:08.485Z,3.06
2023-04-02T06:48:08.581Z,3.03
2023-04-02T06:49:08.476Z,3.02
2023-04-02T06:50:08.535Z,3.02
2023-04-02T06:51:08.444Z,3.03
2023-04-02T06:52:08.452Z,3.05
2023-04-02T06:53:08.430Z,3.03
2023-04-02T06:54:08.403Z,3.06
2023-04-02T06:55:08.455Z,3.08
2023-04-02T06:56:08.426Z,3.11
2023-04-02T06:57:08.539Z,3.10
2023-04-02T06:58:08.372Z,3.11
2023-04-02T06:59:08.345Z,3.13
2023-04-02T07:00:08.330Z,3.13
2023-04-02T07:01:08.398Z,3.14
2023-04-02T07:02:08.386Z,3.17
2023-04-02T07:03:08.348Z,3.18
2023-04-02T07:04:08.307Z,3.23
2023-04-02T07:05:08.437Z,3.23
2023-04-02T07:06:08.269Z,3.26
2023-04-02T07:07:08.269Z,3.28
2023-04-02T07:08:08.282Z,3.29
2023-04-02T07:09:08.259Z,3.32
2023-04-02T07:10:08.257Z,3.33
2023-04-02T07:11:08.201Z,3.35
2023-04-02T07:12:08.216Z,3.35
2023-04-02T07:13:08.305Z,3.36
2023-04-02T07:14:08.187Z,3.42
2023-04-02T07:15:08.169Z,3.51
2023-04-02T07:16:08.216Z,3.52
2023-04-02T07:17:08.140Z,3.52
2023-04-02T07:18:08.193Z,3.52
2023-04-02T07:19:08.161Z,3.50
2023-04-02T07:20:08.191Z,3.48
2023-04-02T07:21:08.148Z,3.47
2023-04-02T07:22:08.086Z,3.48
2023-04-02T07:23:08.077Z,3.52
2023-04-02T07:24:08.089Z,3.51
2023-04-02T07:25:08.073Z,3.52
2023-04-02T07:26:08.128Z,3.57
2023-04-02T07:27:08.081Z,3.58
2023-04-02T07:28:08.033Z,3.61
2023-04-02T07:29:08.027Z,3.68
2023-04-02T07:30:08.020Z,3.70
2023-04-02T07:31:08.094Z,3.73
2023-04-02T07:32:08.154Z,3.70
2023-04-02T07:33:08.125Z,3.68
2023-04-02T07:34:08.014Z,3.65
2023-04-02T07:35:07.989Z,3.62
2023-04-02T07:36:07.985Z,3.60
2023-04-02T07:37:07.935Z,3.55
2023-04-02T07:38:08.037Z,3.52
2023-04-02T07:39:07.933Z,3.51
2023-04-02T07:40:07.931Z,3.48
2023-04-02T07:41:07.908Z,3.45
2023-04-02T07:42:07.928Z,3.42
2023-04-02T07:43:07.879Z,3.45
2023-04-02T07:44:07.900Z,3.43
2023-04-02T07:45:07.866Z,3.40
2023-04-02T07:46:07.909Z,3.36
2023-04-02T07:47:07.858Z,3.40
2023-04-02T07:48:07.872Z,3.40
2023-04-02T07:49:07.804Z,3.43
2023-04-02T07:50:07.846Z,3.42
2023-04-02T07:51:07.800Z,3.39
2023-04-02T07:52:07.851Z,3.39
2023-04-02T07:53:07.759Z,3.40
2023-04-02T07:54:07.801Z,3.42
2023-04-02T07:55:07.833Z,3.40
2023-04-02T07:56:07.763Z,3.43
2023-04-02T07:57:07.864Z,3.48
2023-04-02T07:58:07.727Z,3.50
2023-04-02T07:59:07.702Z,3.50
2023-04-02T08:00:07.748Z,3.54
2023-04-02T08:01:07.745Z,3.57
2023-04-02T08:02:07.753Z,3.61
2023-04-02T08:03:07.941Z,3.65
2023-04-02T08:04:07.776Z,3.62
2023-04-02T08:05:07.680Z,3.65
2023-04-02T08:06:07.629Z,3.66
2023-04-02T08:07:07.618Z,3.68
2023-04-02T08:08:07.706Z,3.69
2023-04-02T08:09:07.634Z,3.68
2023-04-02T08:10:07.607Z,3.61
2023-04-02T08:11:07.593Z,3.62
2023-04-02T08:12:07.569Z,3.61
2023-04-02T08:13:07.567Z,3.65
2023-04-02T08:14:07.559Z,3.69
2023-04-02T08:15:07.571Z,3.65
2023-04-02T08:16:07.551Z,3.66
2023-04-02T08:17:07.533Z,3.65
2023-04-02T08:18:07.563Z,3.68
2023-04-02T08:19:07.628Z,3.65
2023-04-02T08:20:07.554Z,3.65
2023-04-02T08:21:07.487Z,3.70
2023-04-02T08:22:07.481Z,3.69
2023-04-02T08:23:07.455Z,3.72
2023-04-02T08:24:07.444Z,3.72
2023-04-02T08:25:07.455Z,3.70
2023-04-02T08:26:07.459Z,3.69
2023-04-02T08:27:07.409Z,3.66
2023-04-02T08:28:07.411Z,3.68
2023-04-02T08:29:07.392Z,3.65
2023-04-02T08:30:07.410Z,3.66
2023-04-02T08:31:07.411Z,3.66
2023-04-02T08:32:07.401Z,3.66
2023-04-02T08:33:07.461Z,3.65
2023-04-02T08:34:07.343Z,3.65
2023-04-02T08:35:07.396Z,3.60
2023-04-02T08:36:07.390Z,3.61
2023-04-02T08:37:07.329Z,3.60
2023-04-02T08:38:07.361Z,3.65
2023-04-02T08:39:07.364Z,3.69
2023-04-02T08:40:07.362Z,3.70
2023-04-02T08:41:07.256Z,3.73
2023-04-02T08:42:07.255Z,3.78
2023-04-02T08:43:07.317Z,3.87
2023-04-02T08:44:07.247Z,3.90
2023-04-02T08:45:21.140Z,3.93
2023-04-02T08:46:07.310Z,3.94
2023-04-02T08:47:07.210Z,3.96
2023-04-02T08:48:07.228Z,3.96
2023-04-02T08:49:07.191Z,3.90
2023-04-02T08:50:07.330Z,3.90
2023-04-02T08:51:07.181Z,3.90
2023-04-02T08:52:07.159Z,3.86
2023-04-02T08:53:07.196Z,3.86
2023-04-02T08:54:07.138Z,3.88
2023-04-02T08:55:07.115Z,3.88
2023-04-02T08:56:07.118Z,3.90
2023-04-02T08:57:07.258Z,3.90
2023-04-02T08:58:07.094Z,3.91
2023-04-02T08:59:07.069Z,3.93
2023-04-02T09:00:07.126Z,3.93
2023-04-02T09:01:07.069Z,3.91
2023-04-02T09:02:07.055Z,3.91
2023-04-02T09:03:07.162Z,3.98
2023-04-02T09:04:07.030Z,4.02
2023-04-02T09:05:07.077Z,4.05
2023-04-02T09:06:07.003Z,4.09
2023-04-02T09:07:07.004Z,4.09
2023-04-02T09:08:06.984Z,4.16
2023-04-02T09:09:06.969Z,4.22
2023-04-02T09:10:07.121Z,4.27
2023-04-02T09:11:06.947Z,4.27
2023-04-02T09:12:06.946Z,4.24
2023-04-02T09:13:06.977Z,4.24
2023-04-02T09:14:06.934Z,4.30
2023-04-02T09:15:06.900Z,4.33
2023-04-02T09:16:06.894Z,4.32
2023-04-02T09:17:06.907Z,4.33
2023-04-02T09:18:06.897Z,4.30
2023-04-02T09:19:06.931Z,4.33
2023-04-02T09:20:06.850Z,4.37
2023-04-02T09:21:06.847Z,4.44
2023-04-02T09:22:06.819Z,4.51
2023-04-02T09:23:06.825Z,4.51
2023-04-02T09:24:06.798Z,4.60
2023-04-02T09:25:06.791Z,4.66
2023-04-02T09:26:06.812Z,4.73
2023-04-02T09:27:06.765Z,4.69
2023-04-02T09:28:06.865Z,4.66
2023-04-02T09:29:06.734Z,4.67
2023-04-02T09:30:06.847Z,4.62
2023-04-02T09:31:07.399Z,4.59
2023-04-02T09:32:06.786Z,4.62
2023-04-02T09:33:06.794Z,4.66
2023-04-02T09:34:06.682Z,4.77
2023-04-02T09:35:15.041Z,4.75
2023-04-02T09:36:06.740Z,4.80
2023-04-02T09:37:06.716Z,5.07
2023-04-02T09:38:06.671Z,5.65
2023-04-02T09:39:06.659Z,5.78
2023-04-02T09:40:06.629Z,5.97
2023-04-02T09:41:06.702Z,6.40
2023-04-02T09:42:06.636Z,6.55
2023-04-02T09:43:06.597Z,7.34
2023-04-02T09:44:06.644Z,7.61
2023-04-02T09:45:06.596Z,7.48
2023-04-02T09:46:06.554Z,7.74
2023-04-02T09:47:06.571Z,7.61
2023-04-02T09:48:06.562Z,7.34
2023-04-02T09:49:06.542Z,8.30
2023-04-02T09:50:06.520Z,8.48
2023-04-02T09:51:06.607Z,8.20
2023-04-02T09:52:06.488Z,8.05
2023-04-02T09:53:06.603Z,7.68
2023-04-02T09:54:06.497Z,7.30
2023-04-02T09:55:06.467Z,7.17
2023-04-02T09:56:06.509Z,7.68
2023-04-02T09:57:06.575Z,8.65
2023-04-02T09:58:06.465Z,8.81
2023-04-02T09:59:06.429Z,8.77
2023-04-02T10:00:10.428Z,8.48
2023-04-02T10:01:06.477Z,8.29
2023-04-02T10:02:06.432Z,8.10
2023-04-02T10:03:06.433Z,7.72
2023-04-02T10:04:06.408Z,7.45
2023-04-02T10:05:06.349Z,7.24
2023-04-02T10:06:06.363Z,6.94
2023-04-02T10:07:06.485Z,6.84
2023-04-02T10:08:06.371Z,6.88
2023-04-02T10:09:06.311Z,6.94
2023-04-02T10:10:06.305Z,6.98
2023-04-02T10:11:06.306Z,6.97
2023-04-02T10:12:06.293Z,6.94
2023-04-02T10:13:06.291Z,6.89
2023-04-02T10:14:06.247Z,6.89
2023-04-02T10:15:06.330Z,6.85
2023-04-02T10:16:06.240Z,6.71
2023-04-02T10:17:06.257Z,6.66
2023-04-02T10:18:06.214Z,6.58
2023-04-02T10:19:06.229Z,6.49
2023-04-02T10:20:06.240Z,6.27
2023-04-02T10:21:06.217Z,6.25
2023-04-02T10:22:06.164Z,6.41
2023-04-02T10:23:06.576Z,6.46
2023-04-02T10:24:06.150Z,6.48
2023-04-02T10:25:06.119Z,6.40
2023-04-02T10:26:06.720Z,6.34
2023-04-02T10:27:06.111Z,6.30
2023-04-02T10:28:06.127Z,6.31
2023-04-02T10:29:07.191Z,6.21
2023-04-02T10:30:06.064Z,6.09
2023-04-02T10:31:06.100Z,6.08
2023-04-02T10:32:06.065Z,6.22
2023-04-02T10:33:06.120Z,7.87
2023-04-02T10:34:06.022Z,8.77
2023-04-02T10:35:06.009Z,8.92
2023-04-02T10:36:06.086Z,9.58
2023-04-02T10:37:05.990Z,9.57
2023-04-02T10:38:05.994Z,9.90
2023-04-02T10:39:06.034Z,9.76
2023-04-02T10:40:06.028Z,9.20
2023-04-02T10:41:05.977Z,8.81
2023-04-02T10:42:05.937Z,8.70
2023-04-02T10:43:05.916Z,8.45
2023-04-02T10:44:16.799Z,8.36
2023-04-02T10:45:05.960Z,8.29
2023-04-02T10:46:05.975Z,8.15
2023-04-02T10:47:05.878Z,8.23
2023-04-02T10:48:05.913Z,8.16
2023-04-02T10:49:05.984Z,8.16
2023-04-02T10:50:05.974Z,8.11
2023-04-02T10:51:05.928Z,8.37
2023-04-02T10:52:05.844Z,8.29
2023-04-02T10:53:05.830Z,8.36
2023-04-02T10:54:05.799Z,8.92
2023-04-02T10:55:05.846Z,9.33
2023-04-02T10:56:05.860Z,8.96
2023-04-02T10:57:05.817Z,8.74
2023-04-02T10:58:05.776Z,8.41
2023-04-02T10:59:05.777Z,8.43
2023-04-02T11:00:05.770Z,8.25
2023-04-02T11:01:05.742Z,8.00
2023-04-02T11:02:05.744Z,7.92
2023-04-02T11:03:05.788Z,7.93
2023-04-02T11:04:05.698Z,7.89
2023-04-02T11:05:05.705Z,7.85
2023-04-02T11:06:05.701Z,7.74
2023-04-02T11:07:13.996Z,7.67
2023-04-02T11:08:05.664Z,7.64
2023-04-02T11:09:05.645Z,7.69
2023-04-02T11:10:05.655Z,8.00
2023-04-02T11:11:05.614Z,8.08
2023-04-02T11:12:05.617Z,8.12
2023-04-02T11:13:05.598Z,8.01
2023-04-02T11:14:05.609Z,8.01
2023-04-02T11:15:05.601Z,7.86
2023-04-02T11:16:05.591Z,7.67
2023-04-02T11:17:05.608Z,7.45
2023-04-02T11:18:05.638Z,7.34
2023-04-02T11:19:05.542Z,7.25
2023-04-02T11:20:05.538Z,7.15
2023-04-02T11:21:05.545Z,7.15
2023-04-02T11:22:06.889Z,7.03
2023-04-02T11:23:05.500Z,6.97
2023-04-02T11:24:05.468Z,6.98
2023-04-02T11:25:05.477Z,7.06
2023-04-02T11:26:05.464Z,7.20
2023-04-02T11:27:05.475Z,7.27
2023-04-02T11:28:05.454Z,7.97
2023-04-02T11:29:05.417Z,8.11
2023-04-02T11:30:05.549Z,8.25
2023-04-02T11:31:05.436Z,8.23
2023-04-02T11:32:05.394Z,8.22
2023-04-02T11:33:05.558Z,8.22
2023-04-02T11:34:05.534Z,8.20
2023-04-02T11:35:07.491Z,8.04
2023-04-02T11:36:05.378Z,8.11
2023-04-02T11:37:05.350Z,8.30
2023-04-02T11:38:05.328Z,8.61
2023-04-02T11:39:16.556Z,10.56
2023-04-02T11:40:05.297Z,11.52
2023-04-02T11:41:05.297Z,12.05
2023-04-02T11:42:05.343Z,11.62
2023-04-02T11:43:05.259Z,10.96
2023-04-02T11:44:05.303Z,10.60
2023-04-02T11:45:05.254Z,10.18
2023-04-02T11:46:05.221Z,9.90
2023-04-02T11:47:05.226Z,9.47
2023-04-02T11:48:05.248Z,8.99
2023-04-02T11:49:05.240Z,8.59
2023-04-02T11:50:05.198Z,8.40
2023-04-02T11:51:05.216Z,8.10
2023-04-02T11:52:12.013Z,7.97
2023-04-02T11:53:05.166Z,7.71
2023-04-02T11:54:05.147Z,7.52
2023-04-02T11:55:05.207Z,7.32
2023-04-02T11:56:05.188Z,7.27
2023-04-02T11:57:05.188Z,7.15
2023-04-02T11:58:05.131Z,6.97
2023-04-02T11:59:05.119Z,6.88
2023-04-02T12:00:05.131Z,6.80
2023-04-02T12:01:05.086Z,6.80
2023-04-02T12:02:05.133Z,6.79
2023-04-02T12:03:05.185Z,6.67
2023-04-02T12:04:05.024Z,6.59
2023-04-02T12:05:05.195Z,6.54
2023-04-02T12:06:05.006Z,6.46
2023-04-02T12:07:05.084Z,6.46
2023-04-02T12:08:04.993Z,6.41
2023-04-02T12:09:04.996Z,6.44
2023-04-02T12:10:04.973Z,6.41
2023-04-02T12:11:04.958Z,6.41
2023-04-02T12:12:04.947Z,6.49
2023-04-02T12:13:04.934Z,6.58
2023-04-02T12:14:04.943Z,6.71
2023-04-02T12:15:04.918Z,6.81
2023-04-02T12:16:04.904Z,6.84
2023-04-02T12:17:06.296Z,6.81
2023-04-02T12:18:04.969Z,6.73
2023-04-02T12:19:04.909Z,6.71
2023-04-02T12:20:05.986Z,6.64
2023-04-02T12:21:04.938Z,6.59
2023-04-02T12:22:04.826Z,6.51
2023-04-02T12:23:04.893Z,6.51
2023-04-02T12:24:04.816Z,6.40
2023-04-02T12:25:04.821Z,6.34
2023-04-02T12:26:04.789Z,6.34
2023-04-02T12:27:04.788Z,6.36
2023-04-02T12:28:04.758Z,6.34
2023-04-02T12:29:04.758Z,6.37
2023-04-02T12:30:04.821Z,6.33
2023-04-02T12:31:04.758Z,6.38
2023-04-02T12:32:04.763Z,6.51
2023-04-02T12:33:04.792Z,6.54
2023-04-02T12:34:04.763Z,6.54
2023-04-02T12:35:04.748Z,6.59
2023-04-02T12:36:04.711Z,6.62
2023-04-02T12:37:04.680Z,6.69
2023-04-02T12:38:04.660Z,6.74
2023-04-02T12:39:04.700Z,6.77
2023-04-02T12:40:04.652Z,6.77
2023-04-02T12:41:04.624Z,6.87
2023-04-02T12:42:04.620Z,6.99
2023-04-02T12:43:04.598Z,7.21
2023-04-02T12:44:04.597Z,7.34
2023-04-02T12:45:04.595Z,7.43
2023-04-02T12:46:04.603Z,7.40
2023-04-02T12:47:04.569Z,7.28
2023-04-02T12:48:04.758Z,7.23
2023-04-02T12:49:04.534Z,7.23
2023-04-02T12:50:04.530Z,7.16
2023-04-02T12:51:04.594Z,7.10
2023-04-02T12:52:04.516Z,7.15
2023-04-02T12:53:04.494Z,7.07
2023-04-02T12:54:04.485Z,6.98
2023-04-02T12:55:04.585Z,6.89
2023-04-02T12:56:04.514Z,6.79
2023-04-02T12:57:04.510Z,6.76
2023-04-02T12:58:04.460Z,6.77
2023-04-02T12:59:04.429Z,6.87
2023-04-02T13:00:04.440Z,6.95
2023-04-02T13:01:04.433Z,7.07
2023-04-02T13:02:04.480Z,7.07
2023-04-02T13:03:04.451Z,7.12
2023-04-02T13:04:04.470Z,7.23
2023-04-02T13:05:04.377Z,7.39
2023-04-02T13:06:04.343Z,7.50
2023-04-02T13:07:04.352Z,7.46
2023-04-02T13:08:04.531Z,7.45
2023-04-02T13:09:04.325Z,7.57
2023-04-02T13:10:04.356Z,8.28
2023-04-02T13:11:04.326Z,8.56
2023-04-02T13:12:04.333Z,9.28
2023-04-02T13:13:04.274Z,9.40
2023-04-02T13:14:04.550Z,10.07
2023-04-02T13:15:04.262Z,10.04
2023-04-02T13:16:04.401Z,9.61
2023-04-02T13:17:04.252Z,9.05
2023-04-02T13:18:04.246Z,8.70